Time,TemperatureF,DewpointF,PressureIn,WindDirection,WindDirectionDegrees,WindSpeedMPH,WindSpeedGustMPH,Humidity,HourlyPrecipIn,Conditions,Clouds,dailyrainin,SoftwareType,DateUTC
2013-11-07 00:00:00,48.4,39.1,30.33,North,10,2.0,2.0,70,0.00,,,0.00,Wunderground v.1.15,2013-11-07 06:00:00,
2013-11-07 00:05:00,48.3,39.0,30.33,NNE,28,1.0,2.0,70,0.00,,,0.00,Wunderground v.1.15,2013-11-07 06:05:00,
2013-11-07 00:10:00,48.1,38.8,30.33,North,360,1.0,2.0,70,0.00,,,0.00,Wunderground v.1.15,2013-11-07 06:10:00,
2013-11-07 00:20:00,47.8,38.8,30.33,North,5,1.0,1.0,71,0.00,,,0.00,Wunderground v.1.15,2013-11-07 06:20:00,
2013-11-07 00:30:00,47.4,38.8,30.34,North,360,1.0,1.0,72,0.00,,,0.00,Wunderground v.1.15,2013-11-07 06:30:00,
2013-11-07 00:40:00,47.2,38.6,30.33,NNE,20,2.0,2.0,72,0.00,,,0.00,Wunderground v.1.15,2013-11-07 06:40:00,
2013-11-07 00:45:00,47.0,38.4,30.34,North,5,2.0,2.0,72,0.00,,,0.00,Wunderground v.1.15,2013-11-07 06:45:00,
2013-11-07 00:50:00,46.8,38.2,30.34,NNE,29,2.0,2.0,72,0.00,,,0.00,Wunderground v.1.15,2013-11-07 06:50:00,
2013-11-07 01:00:00,46.7,38.5,30.34,NNW,334,3.0,4.0,73,0.00,,,0.00,Wunderground v.1.15,2013-11-07 07:00:00,
2013-11-07 01:05:00,46.6,38.4,30.34,NNE,14,3.0,4.0,73,0.00,,,0.00,Wunderground v.1.15,2013-11-07 07:05:00,
2013-11-07 01:15:00,46.8,38.2,30.34,North,9,3.0,3.0,72,0.00,,,0.00,Wunderground v.1.15,2013-11-07 07:15:00,
2013-11-07 01:20:00,47.0,38.1,30.34,North,355,4.0,4.0,71,0.00,,,0.00,Wunderground v.1.15,2013-11-07 07:20:00,
2013-11-07 01:30:00,46.9,38.0,30.35,North,5,4.0,5.0,71,0.00,,,0.00,Wunderground v.1.15,2013-11-07 07:30:00,
2013-11-07 01:40:00,46.6,38.1,30.34,NNE,13,3.0,3.0,72,0.00,,,0.00,Wunderground v.1.15,2013-11-07 07:40:00,
2013-11-07 01:45:00,46.4,37.9,30.34,NNW,342,3.0,3.0,72,0.00,,,0.00,Wunderground v.1.15,2013-11-07 07:45:00,
2013-11-07 01:55:00,46.1,37.6,30.34,NNE,19,3.0,3.0,72,0.00,,,0.00,Wunderground v.1.15,2013-11-07 07:55:00,
2013-11-07 02:00:00,46.1,37.6,30.35,North,11,3.0,3.0,72,0.00,,,0.00,Wunderground v.1.15,2013-11-07 08:00:00,
2013-11-07 02:10:00,45.9,37.7,30.35,North,355,3.0,3.0,73,0.00,,,0.00,Wunderground v.1.15,2013-11-07 08:10:00,
2013-11-07 02:15:00,45.8,37.3,30.35,NE,43,3.0,3.0,72,0.00,,,0.00,Wunderground v.1.15,2013-11-07 08:15:00,
2013-11-07 02:20:00,45.7,37.5,30.35,NNW,335,2.0,3.0,73,0.00,,,0.00,Wunderground v.1.15,2013-11-07 08:20:00,
2013-11-07 02:30:00,45.3,37.2,30.35,NNE,21,1.0,1.0,73,0.00,,,0.00,Wunderground v.1.15,2013-11-07 08:30:00,
2013-11-07 02:35:00,45.1,37.3,30.35,NNE,17,1.0,1.0,74,0.00,,,0.00,Wunderground v.1.15,2013-11-07 08:35:00,
2013-11-07 02:45:00,44.7,37.3,30.36,North,5,1.0,1.0,75,0.00,,,0.00,Wunderground v.1.15,2013-11-07 08:45:00,
2013-11-07 02:50:00,44.5,37.4,30.35,NNW,327,1.0,2.0,76,0.00,,,0.00,Wunderground v.1.15,2013-11-07 08:50:00,
2013-11-07 03:00:00,44.4,37.0,30.35,NNW,341,2.0,2.0,75,0.00,,,0.00,Wunderground v.1.15,2013-11-07 09:00:00,
2013-11-07 03:05:00,44.4,37.0,30.35,NE,53,2.0,3.0,75,0.00,,,0.00,Wunderground v.1.15,2013-11-07 09:05:00,
2013-11-07 03:15:00,44.3,37.2,30.36,NW,310,1.0,4.0,76,0.00,,,0.00,Wunderground v.1.15,2013-11-07 09:15:00,
2013-11-07 03:20:00,44.3,37.2,30.36,ENE,75,0.0,1.0,76,0.00,,,0.00,Wunderground v.1.15,2013-11-07 09:20:00,
2013-11-07 03:30:00,43.8,37.1,30.36,NNW,347,1.0,1.0,77,0.00,,,0.00,Wunderground v.1.15,2013-11-07 09:30:00,
2013-11-07 03:35:00,43.7,37.0,30.37,North,350,2.0,2.0,77,0.00,,,0.00,Wunderground v.1.15,2013-11-07 09:35:00,
2013-11-07 03:45:00,43.8,37.1,30.37,NNW,333,3.0,5.0,77,0.00,,,0.00,Wunderground v.1.15,2013-11-07 09:45:00,
2013-11-07 03:50:00,43.8,37.1,30.37,NW,315,3.0,3.0,77,0.00,,,0.00,Wunderground v.1.15,2013-11-07 09:50:00,
2013-11-07 04:00:00,43.5,36.8,30.37,NNW,340,2.0,2.0,77,0.00,,,0.00,Wunderground v.1.15,2013-11-07 10:00:00,
2013-11-07 04:05:00,43.3,36.6,30.38,North,5,2.0,2.0,77,0.00,,,0.00,Wunderground v.1.15,2013-11-07 10:05:00,
2013-11-07 04:15:00,42.8,36.4,30.38,North,11,2.0,2.0,78,0.00,,,0.00,Wunderground v.1.15,2013-11-07 10:15:00,
2013-11-07 04:20:00,42.7,36.6,30.38,NNW,345,1.0,1.0,79,0.00,,,0.00,Wunderground v.1.15,2013-11-07 10:20:00,
2013-11-07 04:25:00,42.4,36.7,30.38,NNW,336,1.0,1.0,80,0.00,,,0.00,Wunderground v.1.15,2013-11-07 10:25:00,
2013-11-07 04:35:00,41.9,36.5,30.39,NNW,330,1.0,1.0,81,0.00,,,0.00,Wunderground v.1.15,2013-11-07 10:35:00,
2013-11-07 04:45:00,41.4,36.0,30.39,NNW,329,0.0,1.0,81,0.00,,,0.00,Wunderground v.1.15,2013-11-07 10:45:00,
2013-11-07 04:50:00,41.1,36.0,30.39,NNW,329,0.0,1.0,82,0.00,,,0.00,Wunderground v.1.15,2013-11-07 10:50:00,
2013-11-07 04:55:00,40.8,36.0,30.39,NNW,329,0.0,1.0,83,0.00,,,0.00,Wunderground v.1.15,2013-11-07 10:55:00,
2013-11-07 05:05:00,40.1,35.7,30.40,NNW,329,0.0,1.0,84,0.00,,,0.00,Wunderground v.1.15,2013-11-07 11:05:00,
2013-11-07 05:15:00,39.5,35.4,30.40,NNW,329,0.0,2.0,85,0.00,,,0.00,Wunderground v.1.15,2013-11-07 11:15:00,
2013-11-07 05:20:00,39.3,35.5,30.40,NW,322,0.0,1.0,86,0.00,,,0.00,Wunderground v.1.15,2013-11-07 11:20:00,
2013-11-07 05:25:00,39.1,35.6,30.40,NNW,340,1.0,1.0,87,0.00,,,0.00,Wunderground v.1.15,2013-11-07 11:25:00,
2013-11-07 05:35:00,39.0,35.7,30.41,NNW,342,1.0,2.0,88,0.00,,,0.00,Wunderground v.1.15,2013-11-07 11:35:00,
2013-11-07 05:40:00,38.9,35.4,30.41,NNW,342,1.0,1.0,87,0.00,,,0.00,Wunderground v.1.15,2013-11-07 11:40:00,
2013-11-07 05:45:00,38.8,35.6,30.40,NNW,342,0.0,1.0,88,0.00,,,0.00,Wunderground v.1.15,2013-11-07 11:45:00,
2013-11-07 05:55:00,38.4,35.2,30.42,NW,312,0.0,1.0,88,0.00,,,0.00,Wunderground v.1.15,2013-11-07 11:55:00,
2013-11-07 06:00:00,38.3,35.3,30.41,NW,325,0.0,1.0,89,0.00,,,0.00,Wunderground v.1.15,2013-11-07 12:00:00,
2013-11-07 06:10:00,38.1,35.1,30.42,NW,320,1.0,1.0,89,0.00,,,0.00,Wunderground v.1.15,2013-11-07 12:10:00,
2013-11-07 06:15:00,38.0,35.0,30.42,NW,319,0.0,1.0,89,0.00,,,0.00,Wunderground v.1.15,2013-11-07 12:15:00,
2013-11-07 06:20:00,38.0,35.0,30.42,NNW,334,0.0,2.0,89,0.00,,,0.00,Wunderground v.1.15,2013-11-07 12:20:00,
2013-11-07 06:30:00,38.2,35.0,30.43,NNW,328,2.0,2.0,88,0.00,,,0.00,Wunderground v.1.15,2013-11-07 12:30:00,
2013-11-07 06:35:00,38.4,35.2,30.43,NW,313,2.0,2.0,88,0.00,,,0.00,Wunderground v.1.15,2013-11-07 12:35:00,
2013-11-07 06:45:00,38.5,35.0,30.44,North,350,1.0,2.0,87,0.00,,,0.00,Wunderground v.1.15,2013-11-07 12:45:00,
2013-11-07 06:50:00,38.5,35.0,30.44,NNW,334,2.0,3.0,87,0.00,,,0.00,Wunderground v.1.15,2013-11-07 12:50:00,
2013-11-07 07:00:00,38.7,35.2,30.44,NW,324,2.0,2.0,87,0.00,,,0.00,Wunderground v.1.15,2013-11-07 13:00:00,
2013-11-07 07:05:00,38.8,35.3,30.44,NW,322,1.0,2.0,87,0.00,,,0.00,Wunderground v.1.15,2013-11-07 13:05:00,
2013-11-07 07:15:00,38.9,35.4,30.45,NW,323,1.0,1.0,87,0.00,,,0.00,Wunderground v.1.15,2013-11-07 13:15:00,
2013-11-07 07:20:00,38.9,35.4,30.45,NNW,336,1.0,3.0,87,0.00,,,0.00,Wunderground v.1.15,2013-11-07 13:20:00,
2013-11-07 07:30:00,39.5,35.4,30.45,NNW,344,3.0,3.0,85,0.00,,,0.00,Wunderground v.1.15,2013-11-07 13:30:00,
2013-11-07 07:35:00,40.0,35.6,30.45,NNW,332,3.0,5.0,84,0.00,,,0.00,Wunderground v.1.15,2013-11-07 13:35:00,
2013-11-07 07:45:00,40.8,36.0,30.46,NNW,345,4.0,4.0,83,0.00,,,0.00,Wunderground v.1.15,2013-11-07 13:45:00,
2013-11-07 07:55:00,41.6,36.2,30.46,NW,324,4.0,5.0,81,0.00,,,0.00,Wunderground v.1.15,2013-11-07 13:55:00,
2013-11-07 08:00:00,41.5,36.1,30.46,NNW,341,3.0,4.0,81,0.00,,,0.00,Wunderground v.1.15,2013-11-07 14:00:00,
2013-11-07 08:05:00,41.4,35.7,30.47,North,11,3.0,4.0,80,0.00,,,0.00,Wunderground v.1.15,2013-11-07 14:05:00,
2013-11-07 08:15:00,41.5,36.1,30.47,NNW,347,2.0,3.0,81,0.00,,,0.00,Wunderground v.1.15,2013-11-07 14:15:00,
2013-11-07 08:25:00,42.1,36.7,30.47,NNE,19,2.0,2.0,81,0.00,,,0.00,Wunderground v.1.15,2013-11-07 14:25:00,
2013-11-07 08:30:00,42.6,37.2,30.48,NNW,342,2.0,2.0,81,0.00,,,0.00,Wunderground v.1.15,2013-11-07 14:30:00,
2013-11-07 08:40:00,44.2,37.8,30.48,NW,325,2.0,4.0,78,0.00,,,0.00,Wunderground v.1.15,2013-11-07 14:40:00,
2013-11-07 08:45:00,44.9,37.8,30.48,North,355,3.0,4.0,76,0.00,,,0.00,Wunderground v.1.15,2013-11-07 14:45:00,
2013-11-07 08:50:00,45.7,37.9,30.48,North,360,3.0,3.0,74,0.00,,,0.00,Wunderground v.1.15,2013-11-07 14:50:00,
2013-11-07 08:55:00,46.7,38.5,30.48,North,350,3.0,5.0,73,0.00,,,0.00,Wunderground v.1.15,2013-11-07 14:55:00,
2013-11-07 09:05:00,48.7,37.5,30.49,North,355,3.0,3.0,65,0.00,,,0.00,Wunderground v.1.15,2013-11-07 15:05:00,
2013-11-07 09:15:00,48.9,34.3,30.49,East,80,3.0,3.0,57,0.00,,,0.00,Wunderground v.1.15,2013-11-07 15:15:00,
2013-11-07 09:25:00,49.4,35.2,30.49,NE,34,2.0,3.0,58,0.00,,,0.00,Wunderground v.1.15,2013-11-07 15:25:00,
2013-11-07 09:30:00,50.1,34.5,30.49,NNE,20,3.0,3.0,55,0.00,,,0.00,Wunderground v.1.15,2013-11-07 15:30:00,
2013-11-07 09:35:00,51.0,34.5,30.49,NNE,29,3.0,6.0,53,0.00,,,0.00,Wunderground v.1.15,2013-11-07 15:35:00,
2013-11-07 09:45:00,52.4,33.3,30.49,North,349,3.0,5.0,48,0.00,,,0.00,Wunderground v.1.15,2013-11-07 15:45:00,
2013-11-07 09:55:00,52.8,30.9,30.49,NNE,26,5.0,5.0,43,0.00,,,0.00,Wunderground v.1.15,2013-11-07 15:55:00,
2013-11-07 10:00:00,53.0,31.1,30.49,NNE,26,4.0,4.0,43,0.00,,,0.00,Wunderground v.1.15,2013-11-07 16:00:00,
2013-11-07 10:05:00,53.1,30.6,30.50,East,84,4.0,5.0,42,0.00,,,0.00,Wunderground v.1.15,2013-11-07 16:05:00,
2013-11-07 10:15:00,53.7,31.7,30.49,North,10,4.0,8.0,43,0.00,,,0.00,Wunderground v.1.15,2013-11-07 16:15:00,
2013-11-07 10:25:00,54.6,33.7,30.49,NNE,25,4.0,4.0,45,0.00,,,0.00,Wunderground v.1.15,2013-11-07 16:25:00,
2013-11-07 10:30:00,55.1,29.9,30.50,ESE,108,4.0,4.0,38,0.00,,,0.00,Wunderground v.1.15,2013-11-07 16:30:00,
2013-11-07 10:35:00,55.1,30.6,30.49,NE,53,4.0,4.0,39,0.00,,,0.00,Wunderground v.1.15,2013-11-07 16:35:00,
2013-11-07 10:45:00,55.7,31.1,30.49,ENE,63,4.0,4.0,39,0.00,,,0.00,Wunderground v.1.15,2013-11-07 16:45:00,
2013-11-07 10:55:00,56.5,32.4,30.49,NNE,19,4.0,4.0,40,0.00,,,0.00,Wunderground v.1.15,2013-11-07 16:55:00,
2013-11-07 11:00:00,56.6,32.5,30.49,NNW,348,4.0,6.0,40,0.00,,,0.00,Wunderground v.1.15,2013-11-07 17:00:00,
2013-11-07 11:10:00,56.9,32.8,30.48,NNW,348,5.0,10.0,40,0.00,,,0.00,Wunderground v.1.15,2013-11-07 17:10:00,
2013-11-07 11:15:00,57.1,31.7,30.48,NE,44,4.0,10.0,38,0.00,,,0.00,Wunderground v.1.15,2013-11-07 17:15:00,
2013-11-07 11:20:00,57.4,32.6,30.48,ENE,62,4.0,5.0,39,0.00,,,0.00,Wunderground v.1.15,2013-11-07 17:20:00,
2013-11-07 11:25:00,57.7,32.9,30.48,ENE,57,4.0,5.0,39,0.00,,,0.00,Wunderground v.1.15,2013-11-07 17:25:00,
2013-11-07 11:35:00,57.4,33.9,30.48,NE,43,3.0,4.0,41,0.00,,,0.00,Wunderground v.1.15,2013-11-07 17:35:00,
2013-11-07 11:45:00,57.1,33.0,30.48,NE,34,3.0,4.0,40,0.00,,,0.00,Wunderground v.1.15,2013-11-07 17:45:00,
2013-11-07 11:55:00,58.1,32.6,30.48,SE,138,4.0,5.0,38,0.00,,,0.00,Wunderground v.1.15,2013-11-07 17:55:00,
2013-11-07 12:00:00,58.5,34.2,30.47,North,355,4.0,5.0,40,0.00,,,0.00,Wunderground v.1.15,2013-11-07 18:00:00,
2013-11-07 12:10:00,58.6,32.4,30.47,North,360,5.0,5.0,37,0.00,,,0.00,Wunderground v.1.15,2013-11-07 18:10:00,
2013-11-07 12:15:00,58.7,33.1,30.47,NE,53,4.0,5.0,38,0.00,,,0.00,Wunderground v.1.15,2013-11-07 18:15:00,
2013-11-07 12:20:00,58.8,32.6,30.46,NNE,23,3.0,5.0,37,0.00,,,0.00,Wunderground v.1.15,2013-11-07 18:20:00,
2013-11-07 12:30:00,58.8,33.9,30.46,NNW,335,4.0,6.0,39,0.00,,,0.00,Wunderground v.1.15,2013-11-07 18:30:00,
2013-11-07 12:35:00,58.8,32.6,30.45,East,82,4.0,6.0,37,0.00,,,0.00,Wunderground v.1.15,2013-11-07 18:35:00,
2013-11-07 12:45:00,59.6,33.3,30.45,NE,45,4.0,4.0,37,0.00,,,0.00,Wunderground v.1.15,2013-11-07 18:45:00,
2013-11-07 12:55:00,60.0,33.6,30.45,North,5,4.0,6.0,37,0.00,,,0.00,Wunderground v.1.15,2013-11-07 18:55:00,
2013-11-07 13:00:00,59.4,33.8,30.44,East,82,5.0,7.0,38,0.00,,,0.00,Wunderground v.1.15,2013-11-07 19:00:00,
2013-11-07 13:10:00,59.1,33.5,30.43,NE,44,4.0,4.0,38,0.00,,,0.00,Wunderground v.1.15,2013-11-07 19:10:00,
2013-11-07 13:15:00,59.5,33.9,30.43,NNE,24,4.0,4.0,38,0.00,,,0.00,Wunderground v.1.15,2013-11-07 19:15:00,
2013-11-07 13:20:00,60.3,35.2,30.43,NNW,331,4.0,4.0,39,0.00,,,0.00,Wunderground v.1.15,2013-11-07 19:20:00,
2013-11-07 13:25:00,60.2,36.4,30.43,NNE,12,4.0,9.0,41,0.00,,,0.00,Wunderground v.1.15,2013-11-07 19:25:00,
2013-11-07 13:35:00,60.2,35.1,30.43,NE,49,4.0,4.0,39,0.00,,,0.00,Wunderground v.1.15,2013-11-07 19:35:00,
2013-11-07 13:45:00,60.1,36.3,30.42,NNE,13,4.0,5.0,41,0.00,,,0.00,Wunderground v.1.15,2013-11-07 19:45:00,
2013-11-07 13:50:00,59.9,35.5,30.41,NE,42,5.0,5.0,40,0.00,,,0.00,Wunderground v.1.15,2013-11-07 19:50:00,
2013-11-07 14:00:00,59.6,35.9,30.41,ENE,61,4.0,4.0,41,0.00,,,0.00,Wunderground v.1.15,2013-11-07 20:00:00,
2013-11-07 14:05:00,59.5,36.4,30.41,East,82,4.0,4.0,42,0.00,,,0.00,Wunderground v.1.15,2013-11-07 20:05:00,
2013-11-07 14:15:00,60.0,35.6,30.41,NNW,339,3.0,5.0,40,0.00,,,0.00,Wunderground v.1.15,2013-11-07 20:15:00,
2013-11-07 14:25:00,60.4,34.0,30.41,NE,36,4.0,4.0,37,0.00,,,0.00,Wunderground v.1.15,2013-11-07 20:25:00,
2013-11-07 14:30:00,60.8,34.3,30.40,SE,142,4.0,4.0,37,0.00,,,0.00,Wunderground v.1.15,2013-11-07 20:30:00,
2013-11-07 14:35:00,60.8,34.3,30.41,NE,34,4.0,4.0,37,0.00,,,0.00,Wunderground v.1.15,2013-11-07 20:35:00,
2013-11-07 14:45:00,60.4,33.3,30.40,ENE,57,4.0,4.0,36,0.00,,,0.00,Wunderground v.1.15,2013-11-07 20:45:00,
2013-11-07 14:50:00,60.2,33.8,30.41,East,87,4.0,4.0,37,0.00,,,0.00,Wunderground v.1.15,2013-11-07 20:50:00,
2013-11-07 15:00:00,60.0,34.3,30.40,ESE,112,3.0,3.0,38,0.00,,,0.00,Wunderground v.1.15,2013-11-07 21:00:00,
2013-11-07 15:05:00,59.9,35.5,30.40,ENE,57,3.0,3.0,40,0.00,,,0.00,Wunderground v.1.15,2013-11-07 21:05:00,
2013-11-07 15:15:00,59.9,34.2,30.40,East,95,3.0,4.0,38,0.00,,,0.00,Wunderground v.1.15,2013-11-07 21:15:00,
2013-11-07 15:20:00,59.8,34.1,30.40,North,5,3.0,3.0,38,0.00,,,0.00,Wunderground v.1.15,2013-11-07 21:20:00,
2013-11-07 15:30:00,59.6,35.9,30.40,ENE,77,2.0,4.0,41,0.00,,,0.00,Wunderground v.1.15,2013-11-07 21:30:00,
2013-11-07 15:40:00,59.5,35.1,30.40,ENE,67,2.0,2.0,40,0.00,,,0.00,Wunderground v.1.15,2013-11-07 21:40:00,
2013-11-07 15:45:00,59.4,35.7,30.40,ENE,62,2.0,3.0,41,0.00,,,0.00,Wunderground v.1.15,2013-11-07 21:45:00,
2013-11-07 15:50:00,59.3,35.6,30.40,East,86,2.0,2.0,41,0.00,,,0.00,Wunderground v.1.15,2013-11-07 21:50:00,
2013-11-07 16:00:00,59.0,35.9,30.40,SE,130,2.0,4.0,42,0.00,,,0.00,Wunderground v.1.15,2013-11-07 22:00:00,
2013-11-07 16:10:00,59.0,37.1,30.40,ESE,102,2.0,2.0,44,0.00,,,0.00,Wunderground v.1.15,2013-11-07 22:10:00,
2013-11-07 16:15:00,58.9,36.4,30.41,SE,143,1.0,2.0,43,0.00,,,0.00,Wunderground v.1.15,2013-11-07 22:15:00,
2013-11-07 16:20:00,58.9,37.6,30.41,ESE,108,1.0,1.0,45,0.00,,,0.00,Wunderground v.1.15,2013-11-07 22:20:00,
2013-11-07 16:30:00,59.1,37.2,30.40,ENE,76,1.0,2.0,44,0.00,,,0.00,Wunderground v.1.15,2013-11-07 22:30:00,
2013-11-07 16:35:00,59.3,38.5,30.40,ESE,107,1.0,2.0,46,0.00,,,0.00,Wunderground v.1.15,2013-11-07 22:35:00,
2013-11-07 16:45:00,59.1,37.8,30.40,East,97,1.0,2.0,45,0.00,,,0.00,Wunderground v.1.15,2013-11-07 22:45:00,
2013-11-07 16:55:00,58.7,38.5,30.40,NE,54,0.0,1.0,47,0.00,,,0.00,Wunderground v.1.15,2013-11-07 22:55:00,
2013-11-07 17:00:00,58.5,38.3,30.40,ENE,64,0.0,1.0,47,0.00,,,0.00,Wunderground v.1.15,2013-11-07 23:00:00,
2013-11-07 17:05:00,58.3,38.7,30.40,ENE,63,0.0,1.0,48,0.00,,,0.00,Wunderground v.1.15,2013-11-07 23:05:00,
2013-11-07 17:15:00,57.8,36.0,30.40,ENE,58,2.0,2.0,44,0.00,,,0.00,Wunderground v.1.15,2013-11-07 23:15:00,
2013-11-07 17:25:00,57.5,36.9,30.40,NE,46,0.0,1.0,46,0.00,,,0.00,Wunderground v.1.15,2013-11-07 23:25:00,
2013-11-07 17:30:00,57.3,37.2,30.41,NE,46,0.0,1.0,47,0.00,,,0.00,Wunderground v.1.15,2013-11-07 23:30:00,
2013-11-07 17:40:00,56.7,37.2,30.40,NE,50,0.0,1.0,48,0.00,,,0.00,Wunderground v.1.15,2013-11-07 23:40:00,
2013-11-07 17:45:00,56.4,36.9,30.40,NE,50,0.0,1.0,48,0.00,,,0.00,Wunderground v.1.15,2013-11-07 23:45:00,
2013-11-07 17:50:00,56.2,36.8,30.41,NE,50,0.0,1.0,48,0.00,,,0.00,Wunderground v.1.15,2013-11-07 23:50:00,
2013-11-07 17:55:00,56.0,36.6,30.41,NE,50,0.0,1.0,48,0.00,,,0.00,Wunderground v.1.15,2013-11-07 23:55:00,
2013-11-07 18:05:00,55.7,36.8,30.41,NE,50,0.0,1.0,49,0.00,,,0.00,Wunderground v.1.15,2013-11-08 00:05:00,
2013-11-07 18:15:00,55.0,37.7,30.41,NE,50,0.0,1.0,52,0.00,,,0.00,Wunderground v.1.15,2013-11-08 00:15:00,
2013-11-07 18:25:00,54.4,38.6,30.40,NE,50,0.0,1.0,55,0.00,,,0.00,Wunderground v.1.15,2013-11-08 00:25:00,
2013-11-07 18:35:00,53.6,38.3,30.41,NE,50,0.0,1.0,56,0.00,,,0.00,Wunderground v.1.15,2013-11-08 00:35:00,
2013-11-07 18:45:00,53.1,38.7,30.41,NE,50,0.0,1.0,58,0.00,,,0.00,Wunderground v.1.15,2013-11-08 00:45:00,
2013-11-07 18:55:00,52.8,41.0,30.41,NE,50,0.0,1.0,64,0.00,,,0.00,Wunderground v.1.15,2013-11-08 00:55:00,
2013-11-07 19:00:00,52.4,40.2,30.42,NE,50,0.0,1.0,63,0.00,,,0.00,Wunderground v.1.15,2013-11-08 01:00:00,
2013-11-07 19:05:00,52.3,40.5,30.41,NE,50,0.0,1.0,64,0.00,,,0.00,Wunderground v.1.15,2013-11-08 01:05:00,
2013-11-07 19:15:00,52.1,40.3,30.41,NE,50,0.0,1.0,64,0.00,,,0.00,Wunderground v.1.15,2013-11-08 01:15:00,
2013-11-07 19:20:00,52.1,40.3,30.40,East,80,0.0,1.0,64,0.00,,,0.00,Wunderground v.1.15,2013-11-08 01:20:00,
2013-11-07 19:30:00,52.1,39.9,30.41,East,94,0.0,1.0,63,0.00,,,0.00,Wunderground v.1.15,2013-11-08 01:30:00,
2013-11-07 19:35:00,52.1,40.3,30.41,East,94,0.0,1.0,64,0.00,,,0.00,Wunderground v.1.15,2013-11-08 01:35:00,
2013-11-07 19:45:00,51.8,40.0,30.42,East,94,0.0,1.0,64,0.00,,,0.00,Wunderground v.1.15,2013-11-08 01:45:00,
2013-11-07 19:50:00,51.8,40.4,30.42,East,94,0.0,1.0,65,0.00,,,0.00,Wunderground v.1.15,2013-11-08 01:50:00,
2013-11-07 20:00:00,51.5,40.5,30.42,East,94,0.0,1.0,66,0.00,,,0.00,Wunderground v.1.15,2013-11-08 02:00:00,
2013-11-07 20:05:00,51.6,40.6,30.43,East,94,0.0,1.0,66,0.00,,,0.00,Wunderground v.1.15,2013-11-08 02:05:00,
2013-11-07 20:15:00,51.5,41.7,30.43,East,91,0.0,1.0,69,0.00,,,0.00,Wunderground v.1.15,2013-11-08 02:15:00,
2013-11-07 20:25:00,51.0,42.3,30.42,East,91,0.0,1.0,72,0.00,,,0.00,Wunderground v.1.15,2013-11-08 02:25:00,
2013-11-07 20:30:00,50.8,41.7,30.42,East,91,0.0,1.0,71,0.00,,,0.00,Wunderground v.1.15,2013-11-08 02:30:00,
2013-11-07 20:40:00,50.7,41.3,30.42,East,91,0.0,1.0,70,0.00,,,0.00,Wunderground v.1.15,2013-11-08 02:40:00,
2013-11-07 20:45:00,50.7,40.9,30.42,East,91,0.0,1.0,69,0.00,,,0.00,Wunderground v.1.15,2013-11-08 02:45:00,
2013-11-07 20:55:00,50.6,41.2,30.41,East,91,0.0,1.0,70,0.00,,,0.00,Wunderground v.1.15,2013-11-08 02:55:00,
2013-11-07 21:00:00,50.5,41.4,30.41,East,91,0.0,1.0,71,0.00,,,0.00,Wunderground v.1.15,2013-11-08 03:00:00,
2013-11-07 21:05:00,50.5,41.1,30.41,East,91,0.0,1.0,70,0.00,,,0.00,Wunderground v.1.15,2013-11-08 03:05:00,
2013-11-07 21:15:00,50.6,41.5,30.41,East,91,0.0,1.0,71,0.00,,,0.00,Wunderground v.1.15,2013-11-08 03:15:00,
2013-11-07 21:25:00,50.4,42.4,30.42,East,92,0.0,1.0,74,0.00,,,0.00,Wunderground v.1.15,2013-11-08 03:25:00,
2013-11-07 21:30:00,50.3,41.3,30.41,East,92,0.0,1.0,71,0.00,,,0.00,Wunderground v.1.15,2013-11-08 03:30:00,
2013-11-07 21:35:00,50.3,42.7,30.42,East,92,0.0,1.0,75,0.00,,,0.00,Wunderground v.1.15,2013-11-08 03:35:00,
2013-11-07 21:45:00,50.0,42.0,30.42,East,92,0.0,1.0,74,0.00,,,0.00,Wunderground v.1.15,2013-11-08 03:45:00,
2013-11-07 21:50:00,49.9,42.3,30.43,East,92,0.0,1.0,75,0.00,,,0.00,Wunderground v.1.15,2013-11-08 03:50:00,
2013-11-07 22:00:00,49.6,42.3,30.43,East,92,0.0,1.0,76,0.00,,,0.00,Wunderground v.1.15,2013-11-08 04:00:00,
2013-11-07 22:05:00,49.5,41.2,30.42,East,92,0.0,1.0,73,0.00,,,0.00,Wunderground v.1.15,2013-11-08 04:05:00,
2013-11-07 22:15:00,49.6,42.3,30.42,East,92,0.0,1.0,76,0.00,,,0.00,Wunderground v.1.15,2013-11-08 04:15:00,
2013-11-07 22:20:00,49.5,43.3,30.43,East,87,0.0,1.0,79,0.00,,,0.00,Wunderground v.1.15,2013-11-08 04:20:00,
2013-11-07 22:30:00,49.2,42.3,30.42,East,87,0.0,1.0,77,0.00,,,0.00,Wunderground v.1.15,2013-11-08 04:30:00,
2013-11-07 22:40:00,49.3,42.1,30.42,East,87,0.0,1.0,76,0.00,,,0.00,Wunderground v.1.15,2013-11-08 04:40:00,
2013-11-07 22:45:00,49.4,41.8,30.42,ESE,119,0.0,1.0,75,0.00,,,0.00,Wunderground v.1.15,2013-11-08 04:45:00,
2013-11-07 22:50:00,49.4,41.8,30.42,ESE,119,0.0,1.0,75,0.00,,,0.00,Wunderground v.1.15,2013-11-08 04:50:00,
2013-11-07 23:00:00,49.6,42.7,30.42,ESE,119,0.0,1.0,77,0.00,,,0.00,Wunderground v.1.15,2013-11-08 05:00:00,
2013-11-07 23:05:00,49.5,43.3,30.41,ESE,119,0.0,1.0,79,0.00,,,0.00,Wunderground v.1.15,2013-11-08 05:05:00,
2013-11-07 23:10:00,49.3,42.7,30.41,ESE,119,0.0,1.0,78,0.00,,,0.00,Wunderground v.1.15,2013-11-08 05:10:00,
2013-11-07 23:15:00,49.1,42.9,30.41,ESE,119,0.0,1.0,79,0.00,,,0.00,Wunderground v.1.15,2013-11-08 05:15:00,
2013-11-07 23:20:00,48.9,42.7,30.40,ESE,119,0.0,1.0,79,0.00,,,0.00,Wunderground v.1.15,2013-11-08 05:20:00,
2013-11-07 23:25:00,48.8,42.2,30.40,ESE,119,0.0,1.0,78,0.00,,,0.00,Wunderground v.1.15,2013-11-08 05:25:00,
2013-11-07 23:30:00,48.8,42.9,30.40,ESE,119,0.0,1.0,80,0.00,,,0.00,Wunderground v.1.15,2013-11-08 05:30:00,
2013-11-07 23:35:00,48.8,43.5,30.40,ESE,119,0.0,1.0,82,0.00,,,0.00,Wunderground v.1.15,2013-11-08 05:35:00,
2013-11-07 23:40:00,48.6,43.4,30.40,ESE,119,0.0,1.0,82,0.00,,,0.00,Wunderground v.1.15,2013-11-08 05:40:00,
2013-11-07 23:45:00,48.5,42.9,30.40,ESE,119,0.0,1.0,81,0.00,,,0.00,Wunderground v.1.15,2013-11-08 05:45:00,
2013-11-07 23:50:00,48.4,42.5,30.40,ESE,119,0.0,1.0,80,0.00,,,0.00,Wunderground v.1.15,2013-11-08 05:50:00,
2013-11-07 23:55:00,48.4,42.8,30.40,ESE,119,0.0,1.0,81,0.00,,,0.00,Wunderground v.1.15,2013-11-08 05:55:00,